createdAt,value
2023-01-10T02:11:23.983Z,101338.73
2023-01-10T02:13:51.341Z,101331.96
2023-01-10T02:16:18.538Z,101322.43
2023-01-10T02:18:45.546Z,101316.42
2023-01-10T02:21:15.668Z,101310.05
2023-01-10T02:24:04.527Z,101302.81
2023-01-10T02:26:42.627Z,101298.91
2023-01-10T02:29:46.621Z,101296.75
2023-01-10T02:32:28.606Z,101284.44
2023-01-10T02:35:11.154Z,101283.52
2023-01-10T02:37:44.417Z,101283.56
2023-01-10T02:40:30.643Z,101285.09
2023-01-10T02:43:10.142Z,101289.52
2023-01-10T02:45:49.853Z,101290.19
2023-01-10T02:48:17.449Z,101298.08
2023-01-10T02:50:52.151Z,101298.20
2023-01-10T02:53:23.628Z,101309.86
2023-01-10T02:56:03.945Z,101296.77
2023-01-10T02:58:39.020Z,101290.08
2023-01-10T03:01:09.808Z,101287.84
2023-01-10T03:03:46.428Z,101295.80
2023-01-10T03:06:24.007Z,101290.55
2023-01-10T03:08:58.980Z,101291.03
2023-01-10T03:11:39.491Z,101285.23
2023-01-10T03:14:14.291Z,101292.60
2023-01-10T03:16:41.824Z,101279.17
2023-01-10T03:19:13.104Z,101286.08
2023-01-10T03:21:40.467Z,101283.12
2023-01-10T03:24:13.575Z,101276.61
2023-01-10T03:26:47.983Z,101280.29
2023-01-10T03:29:21.942Z,101279.27
2023-01-10T03:31:52.160Z,101275.67
2023-01-10T03:34:19.217Z,101264.47
2023-01-10T03:37:03.768Z,101281.54
2023-01-10T03:39:34.916Z,101282.59
2023-01-10T03:42:17.388Z,101285.76
2023-01-10T03:45:01.505Z,101285.80
2023-01-10T03:47:41.202Z,101285.34
2023-01-10T03:50:14.919Z,101280.83
2023-01-10T03:52:41.859Z,101282.71
2023-01-10T03:55:13.518Z,101289.04
2023-01-10T03:57:45.031Z,101289.58
2023-01-10T04:00:12.890Z,101290.45
2023-01-10T04:02:39.570Z,101289.67
2023-01-10T04:05:07.256Z,101295.67
2023-01-10T04:07:34.408Z,101302.55
2023-01-10T04:10:01.170Z,101292.87
2023-01-10T04:12:27.909Z,101287.56
2023-01-10T04:14:55.273Z,101290.87
2023-01-10T04:17:22.159Z,101292.60
2023-01-10T04:19:49.066Z,101297.42
2023-01-10T04:22:16.010Z,101301.60
2023-01-10T04:24:43.692Z,101304.36
2023-01-10T04:27:10.935Z,101305.42
2023-01-10T04:29:38.192Z,101294.93
2023-01-10T04:32:05.040Z,101294.88
2023-01-10T04:34:34.987Z,101297.89
2023-01-10T04:37:01.909Z,101290.61
2023-01-10T04:39:29.385Z,101294.27
2023-01-10T04:41:56.634Z,101295.50
2023-01-10T04:44:23.493Z,101306.73
2023-01-10T04:46:50.216Z,101298.17
2023-01-10T04:49:17.030Z,101304.94
2023-01-10T04:51:43.815Z,101305.86
2023-01-10T04:54:10.626Z,101303.23
2023-01-10T04:56:37.423Z,101314.70
2023-01-10T04:59:05.997Z,101299.39
2023-01-10T05:01:34.890Z,101309.58
2023-01-10T05:04:02.865Z,101301.20
2023-01-10T05:06:29.612Z,101316.88
2023-01-10T05:08:56.970Z,101318.24
2023-01-10T05:11:23.978Z,101313.39
2023-01-10T05:13:50.877Z,101302.07
2023-01-10T05:16:18.186Z,101318.42
2023-01-10T05:18:44.979Z,101297.15
2023-01-10T05:21:12.691Z,101296.85
2023-01-10T05:23:39.445Z,101312.12
2023-01-10T05:26:11.076Z,101297.77
2023-01-10T05:28:38.377Z,101303.39
2023-01-10T05:31:06.479Z,101310.92
2023-01-10T05:33:33.907Z,101301.91
2023-01-10T05:36:01.920Z,101308.88
2023-01-10T05:38:29.585Z,101308.52
2023-01-10T05:40:58.911Z,101318.10
2023-01-10T05:43:25.946Z,101317.92
2023-01-10T05:45:52.829Z,101324.81
2023-01-10T05:48:19.657Z,101320.02
2023-01-10T05:50:46.381Z,101326.27
2023-01-10T05:53:13.339Z,101335.52
2023-01-10T05:55:40.286Z,101328.77
2023-01-10T05:58:07.750Z,101319.88
2023-01-10T06:00:35.505Z,101323.06
2023-01-10T06:03:03.048Z,101331.79
2023-01-10T06:05:30.957Z,101340.48
2023-01-10T06:07:59.162Z,101332.43
2023-01-10T11:55:46.410Z,101347.39
2023-01-10T11:58:14.562Z,101358.55
2023-01-10T12:00:48.245Z,101348.45
2023-01-10T12:03:28.702Z,101366.60
2023-01-10T12:06:06.239Z,101357.01
2023-01-10T12:08:37.596Z,101363.66
2023-01-10T12:11:31.019Z,101365.76
2023-01-10T12:13:59.528Z,101364.02
2023-01-10T12:16:28.368Z,101358.95
2023-01-10T12:18:59.752Z,101353.38
2023-01-10T12:21:42.917Z,101357.91
2023-01-10T12:24:15.783Z,101364.89
2023-01-10T12:26:42.572Z,101359.13
2023-01-10T12:29:15.921Z,101370.30
2023-01-10T12:31:42.799Z,101381.63
2023-01-10T12:34:14.982Z,101375.88
2023-01-10T12:36:55.518Z,101375.70
2023-01-10T12:39:24.188Z,101376.73
2023-01-10T12:42:50.555Z,101381.98
2023-01-10T12:45:28.799Z,101384.77
2023-01-10T12:48:01.645Z,101382.33
2023-01-10T12:50:32.089Z,101379.19
2023-01-10T12:52:58.971Z,101388.60
2023-01-10T12:55:28.559Z,101386.52
2023-01-10T12:58:00.777Z,101377.45
2023-01-10T13:00:47.870Z,101380.77
2023-01-10T13:03:19.444Z,101388.43
2023-01-10T13:05:48.892Z,101392.79
2023-01-10T13:08:17.531Z,101391.90
2023-01-10T13:10:45.489Z,101382.83
2023-01-10T13:13:36.405Z,101376.39
2023-01-10T13:16:09.695Z,101377.95
2023-01-10T13:18:36.829Z,101376.19
2023-01-10T13:21:08.487Z,101385.42
2023-01-10T13:23:58.337Z,101384.88
2023-01-10T13:26:25.199Z,101387.98
2023-01-10T13:28:59.076Z,101395.42
2023-01-10T13:31:32.950Z,101401.50
2023-01-10T13:34:06.586Z,101389.25
2023-01-10T13:36:38.165Z,101401.27
2023-01-10T13:39:08.274Z,101403.15
2023-01-10T13:42:33.603Z,101411.09
2023-01-10T13:45:03.203Z,101418.00
2023-01-10T13:47:40.921Z,101422.84
2023-01-10T13:50:24.042Z,101422.58
2023-01-10T13:53:12.351Z,101411.86
2023-01-10T13:55:41.757Z,101426.40
2023-01-10T13:58:40.435Z,101427.89
2023-01-10T14:01:44.959Z,101435.66
2023-01-10T14:04:31.411Z,101437.23
2023-01-10T14:06:58.931Z,101437.70
2023-01-10T14:09:35.557Z,101445.29
2023-01-10T14:12:04.566Z,101444.86
2023-01-10T14:14:38.756Z,101454.90
2023-01-10T14:17:13.025Z,101452.41
2023-01-10T14:19:42.998Z,101459.73
2023-01-10T14:22:30.511Z,101473.34
2023-01-10T14:25:02.761Z,101474.34
2023-01-10T14:27:50.335Z,101475.08
2023-01-10T14:30:20.565Z,101474.56
2023-01-10T14:32:50.630Z,101473.33
2023-01-10T14:35:22.539Z,101473.23
2023-01-10T14:37:57.164Z,101461.03
2023-01-10T14:40:43.762Z,101463.70
2023-01-10T14:43:15.730Z,101479.40
2023-01-10T14:45:58.147Z,101486.73
2023-01-10T14:48:26.779Z,101472.63
2023-01-10T14:51:25.821Z,101492.48
2023-01-10T14:53:57.713Z,101508.09
2023-01-10T14:56:48.827Z,101479.88
2023-01-10T14:59:30.227Z,101494.79
2023-01-10T15:02:10.942Z,101481.23
2023-01-10T15:04:38.378Z,101483.19
2023-01-10T15:07:12.577Z,101486.13
2023-01-10T15:09:39.434Z,101493.29
2023-01-10T15:12:07.623Z,101488.69
2023-01-10T15:14:36.052Z,101492.25
2023-01-10T15:17:05.573Z,101488.80
2023-01-10T15:19:34.772Z,101498.36
2023-01-10T15:22:02.961Z,101493.81
2023-01-10T15:24:35.136Z,101497.69
2023-01-10T15:27:08.207Z,101502.36
2023-01-10T15:29:36.431Z,101513.21
2023-01-10T15:32:33.869Z,101524.64
2023-01-10T15:35:01.257Z,101514.15
2023-01-10T15:37:37.672Z,101517.03
2023-01-10T15:40:05.988Z,101510.54
2023-01-10T15:42:34.799Z,101508.75
2023-01-10T15:45:27.271Z,101513.48
2023-01-10T15:48:02.411Z,101518.93
2023-01-10T15:50:38.153Z,101519.81
2023-01-10T15:53:09.755Z,101510.53
2023-01-10T15:55:55.323Z,101514.58
2023-01-10T15:58:34.566Z,101510.21
2023-01-10T16:01:01.761Z,101516.20
2023-01-10T16:03:33.915Z,101511.75
2023-01-10T22:23:32.891Z,101596.58
2023-01-10T22:26:10.452Z,101587.37
2023-01-10T22:28:37.373Z,101579.77
2023-01-10T22:31:04.396Z,101570.62
2023-01-10T22:33:32.862Z,101570.31
2023-01-10T22:36:07.267Z,101572.21
2023-01-10T22:38:34.458Z,101587.20
2023-01-10T22:41:18.327Z,101575.52
2023-01-10T22:43:45.253Z,101575.30
2023-01-10T22:46:15.942Z,101572.11
2023-01-10T22:48:43.346Z,101575.48
2023-01-10T22:51:10.640Z,101571.85
2023-01-10T22:53:37.642Z,101571.17
2023-01-10T22:56:05.948Z,101579.48
2023-01-10T22:58:33.279Z,101564.73
2023-01-10T23:01:03.569Z,101565.31
2023-01-10T23:03:30.461Z,101551.55
2023-01-10T23:05:57.726Z,101532.05
2023-01-10T23:08:25.729Z,101545.25
2023-01-10T23:10:54.208Z,101554.73
2023-01-10T23:13:22.372Z,101560.63
2023-01-10T23:15:59.535Z,101574.70
2023-01-10T23:18:26.700Z,101562.91
2023-01-10T23:20:53.891Z,101556.95
2023-01-10T23:23:20.898Z,101566.79
2023-01-10T23:26:01.622Z,101563.94
2023-01-10T23:28:33.592Z,101561.39
2023-01-10T23:31:00.577Z,101555.70
2023-01-10T23:33:27.524Z,101568.34
2023-01-10T23:35:54.484Z,101563.55
2023-01-10T23:38:21.427Z,101557.77
2023-01-10T23:40:48.379Z,101564.09
2023-01-10T23:43:15.333Z,101561.30
2023-01-10T23:45:43.611Z,101580.91
2023-01-10T23:48:11.535Z,101558.19
2023-01-10T23:50:38.536Z,101557.46
2023-01-10T23:53:06.007Z,101560.30
2023-01-10T23:55:33.160Z,101557.52
2023-01-10T23:58:00.412Z,101550.09
